createdAt,value
2019-02-15T00:04:08.691Z,100945.30
2019-02-15T00:09:16.764Z,100943.64
2019-02-15T00:14:22.344Z,100949.01
2019-02-15T00:19:38.993Z,100941.48
2019-02-15T00:24:50.006Z,100920.08
2019-02-15T00:29:56.536Z,100920.08
2019-02-15T00:35:04.942Z,100933.08
2019-02-15T00:40:13.742Z,100933.08
2019-02-15T00:45:22.666Z,100931.38
2019-02-15T00:51:08.593Z,100932.98
2019-02-15T00:56:40.405Z,100938.09
2019-02-15T01:02:19.735Z,100933.86
2019-02-15T01:08:04.762Z,100928.72
2019-02-15T01:13:16.110Z,100923.12
2019-02-15T01:18:22.714Z,100930.52
2019-02-15T01:23:28.261Z,100933.73
2019-02-15T01:29:10.918Z,100935.45
2019-02-15T01:34:30.804Z,100928.16
2019-02-15T01:40:00.305Z,100929.86
2019-02-15T01:45:31.973Z,100934.39
2019-02-15T01:50:39.977Z,100922.77
2019-02-15T01:55:45.545Z,100926.50
2019-02-15T02:00:53.669Z,100932.32
2019-02-15T02:05:59.290Z,100935.27
2019-02-15T02:11:09.080Z,100934.09
2019-02-15T02:16:17.952Z,100933.41
2019-02-15T02:21:24.172Z,100916.11
2019-02-15T02:26:30.742Z,100927.98
2019-02-15T02:31:36.344Z,100915.59
2019-02-15T02:36:49.621Z,100918.63
2019-02-15T02:41:56.890Z,100918.00
2019-02-15T02:47:09.699Z,100911.84
2019-02-15T02:52:15.292Z,100910.81
2019-02-15T02:57:22.732Z,100900.91
2019-02-15T03:02:28.340Z,100900.77
2019-02-15T03:07:33.999Z,100897.53
2019-02-15T03:12:45.336Z,100885.28
2019-02-15T03:17:50.900Z,100895.17
2019-02-15T03:22:56.516Z,100890.02
2019-02-15T03:28:02.566Z,100895.95
2019-02-15T03:33:10.513Z,100888.84
2019-02-15T03:38:22.862Z,100892.98
2019-02-15T03:43:28.575Z,100893.78
2019-02-15T03:48:34.146Z,100893.97
2019-02-15T03:53:41.470Z,100886.91
2019-02-15T03:58:47.071Z,100884.70
2019-02-15T04:03:53.087Z,100889.19
2019-02-15T04:09:17.597Z,100893.32
2019-02-15T04:14:32.443Z,100896.28
2019-02-15T04:19:31.466Z,100896.78
2019-02-15T04:24:37.187Z,100883.88
2019-02-15T04:29:43.204Z,100890.25
2019-02-15T04:34:48.849Z,100891.88
2019-02-15T04:39:54.842Z,100892.07
2019-02-15T04:45:06.450Z,100884.59
2019-02-15T04:50:18.548Z,100869.89
2019-02-15T04:55:24.127Z,100890.72
2019-02-15T05:00:34.883Z,100886.81
2019-02-15T05:05:46.308Z,100880.90
2019-02-15T05:10:56.233Z,100880.73
2019-02-15T05:16:02.789Z,100888.94
2019-02-15T05:21:08.434Z,100886.05
2019-02-15T05:26:13.914Z,100891.98
2019-02-15T05:31:21.535Z,100897.88
2019-02-15T05:36:27.183Z,100895.58
2019-02-15T05:41:32.801Z,100897.08
2019-02-15T05:46:40.142Z,100892.02
2019-02-15T05:51:49.441Z,100890.55
2019-02-15T05:56:58.178Z,100897.16
2019-02-15T06:02:05.386Z,100902.00
2019-02-15T06:07:14.180Z,100913.12
2019-02-15T06:12:21.111Z,100910.84
2019-02-15T06:17:31.441Z,100908.33
2019-02-15T06:22:37.008Z,100902.88
2019-02-15T06:27:44.448Z,100902.16
2019-02-15T06:32:52.681Z,100916.50
2019-02-15T06:38:03.668Z,100914.75
2019-02-15T06:43:09.369Z,100916.02
2019-02-15T06:48:16.536Z,100917.31
2019-02-15T06:53:23.561Z,100921.62
2019-02-15T06:58:29.219Z,100920.70
2019-02-15T07:03:44.843Z,100921.20
2019-02-15T07:08:50.296Z,100917.76
2019-02-15T07:13:57.841Z,100920.11
2019-02-15T07:19:07.728Z,100929.70
2019-02-15T07:24:18.536Z,100924.95
2019-02-15T07:29:25.542Z,100929.98
2019-02-15T07:34:42.190Z,100940.59
2019-02-15T07:39:50.612Z,100940.25
2019-02-15T07:45:00.436Z,100933.32
2019-02-15T07:50:16.141Z,100929.91
2019-02-15T07:55:24.175Z,100930.98
2019-02-15T08:00:30.222Z,100919.95
2019-02-15T08:05:38.465Z,100924.53
2019-02-15T08:10:52.883Z,100924.52
2019-02-15T08:16:07.154Z,100917.55
2019-02-15T08:21:15.408Z,100912.11
2019-02-15T08:26:23.730Z,100913.89
2019-02-15T08:31:34.468Z,100917.01
2019-02-15T08:36:50.850Z,100917.01
2019-02-15T08:42:04.471Z,100919.36
2019-02-15T08:47:18.408Z,100926.78
2019-02-15T08:52:27.954Z,100918.18
2019-02-15T08:57:35.266Z,100910.52
2019-02-15T09:02:41.872Z,100908.40
2019-02-15T09:07:49.291Z,100907.77
2019-02-15T09:13:00.561Z,100905.31
2019-02-15T09:23:19.274Z,100905.09
2019-02-15T09:28:40.397Z,100902.98
2019-02-15T09:33:49.449Z,100894.33
2019-02-15T09:38:55.924Z,100904.39
2019-02-15T09:44:07.644Z,100892.34
2019-02-15T09:49:16.726Z,100893.95
2019-02-15T09:54:27.262Z,100894.91
2019-02-15T09:59:39.632Z,100887.11
2019-02-15T10:04:45.275Z,100893.30
2019-02-15T10:09:49.952Z,100899.06
2019-02-15T10:14:57.168Z,100889.34
2019-02-15T10:20:11.899Z,100897.23
2019-02-15T10:25:25.666Z,100901.96
2019-02-15T10:30:36.363Z,100901.84
2019-02-15T10:35:49.467Z,100886.61
2019-02-15T10:40:55.516Z,100890.08
2019-02-15T10:46:07.575Z,100890.21
2019-02-15T10:51:13.154Z,100885.14
2019-02-15T10:56:24.191Z,100889.17
2019-02-15T11:01:31.076Z,100886.07
2019-02-15T11:06:38.961Z,100873.73
2019-02-15T11:11:48.085Z,100875.63
2019-02-15T11:17:03.202Z,100863.87
2019-02-15T11:22:18.805Z,100871.11
2019-02-15T11:27:32.281Z,100872.51
2019-02-15T11:32:41.930Z,100872.78
2019-02-15T11:37:54.480Z,100870.53
2019-02-15T11:43:06.349Z,100867.11
2019-02-15T11:48:32.517Z,100860.30
2019-02-15T11:53:39.256Z,100856.91
2019-02-15T11:58:48.858Z,100845.62
2019-02-15T12:03:58.173Z,100845.83
2019-02-15T12:09:10.432Z,100844.30
2019-02-15T12:14:25.759Z,100848.33
2019-02-15T12:19:42.958Z,100836.80
2019-02-15T12:24:51.268Z,100834.53
2019-02-15T12:30:01.889Z,100837.97
2019-02-15T12:35:15.032Z,100829.31
2019-02-15T12:40:21.938Z,100823.72
2019-02-15T12:45:35.899Z,100820.53
2019-02-15T12:50:46.474Z,100813.98
2019-02-15T12:55:52.066Z,100809.98
2019-02-15T13:00:57.768Z,100808.73
2019-02-15T13:06:03.620Z,100800.75
2019-02-15T13:11:12.418Z,100800.22
2019-02-15T13:16:27.034Z,100791.70
2019-02-15T13:21:35.096Z,100789.72
2019-02-15T13:26:43.869Z,100786.30
2019-02-15T13:31:49.646Z,100784.86
2019-02-15T13:36:59.171Z,100773.67
2019-02-15T13:42:07.907Z,100771.08
2019-02-15T13:47:14.123Z,100766.58
2019-02-15T13:52:29.698Z,100764.80
2019-02-15T13:57:38.517Z,100751.05
2019-02-15T14:02:45.141Z,100757.64
2019-02-15T14:07:51.677Z,100751.29
2019-02-15T14:13:00.673Z,100745.23
2019-02-15T14:18:06.713Z,100741.39
2019-02-15T14:23:14.016Z,100738.20
2019-02-15T14:28:20.013Z,100728.28
2019-02-15T14:33:25.833Z,100727.44
2019-02-15T14:38:34.236Z,100720.81
2019-02-15T14:43:42.278Z,100717.57
2019-02-15T14:48:52.486Z,100716.82
2019-02-15T14:53:58.211Z,100711.07
2019-02-15T14:59:04.883Z,100700.86
2019-02-15T15:04:10.795Z,100700.63
2019-02-15T15:09:18.388Z,100697.06
2019-02-15T15:14:26.121Z,100682.97
2019-02-15T15:19:34.404Z,100679.20
2019-02-15T15:24:39.997Z,100672.34
2019-02-15T15:29:45.722Z,100665.70
2019-02-15T15:34:55.218Z,100665.36
2019-02-15T15:40:06.018Z,100659.79
2019-02-15T15:45:15.218Z,100662.05
2019-02-15T15:50:22.021Z,100658.44
2019-02-15T15:55:30.038Z,100645.05
2019-02-15T16:00:41.341Z,100650.59
2019-02-15T16:05:50.305Z,100644.24
2019-02-15T16:10:57.104Z,100642.03
2019-02-15T16:16:02.951Z,100649.06
2019-02-15T16:21:16.114Z,100648.77
2019-02-15T16:26:25.636Z,100645.53
2019-02-15T16:31:35.857Z,100648.66
2019-02-15T16:36:44.761Z,100657.93
2019-02-15T16:41:58.912Z,100658.66
2019-02-15T16:47:05.673Z,100659.02
2019-02-15T16:52:11.387Z,100664.84
2019-02-15T16:57:17.355Z,100658.58
2019-02-15T17:02:30.428Z,100664.09
2019-02-15T17:07:36.128Z,100664.35
2019-02-15T17:12:46.429Z,100663.83
2019-02-15T17:17:56.199Z,100675.67
2019-02-15T17:23:06.348Z,100679.70
2019-02-15T17:28:29.573Z,100680.03
2019-02-15T17:33:38.509Z,100676.88
2019-02-15T17:38:45.358Z,100678.24
2019-02-15T17:44:03.946Z,100673.59
2019-02-15T17:49:12.557Z,100673.75
2019-02-15T17:54:22.454Z,100674.20
2019-02-15T17:59:28.628Z,100669.07
2019-02-15T18:04:34.582Z,100667.05
2019-02-15T18:09:45.098Z,100666.33
2019-02-15T18:14:54.427Z,100670.06
2019-02-15T18:20:05.114Z,100665.92
2019-02-15T18:25:14.738Z,100666.88
2019-02-15T18:30:23.372Z,100656.94
2019-02-15T18:35:29.897Z,100655.92
2019-02-15T18:40:39.363Z,100655.51
2019-02-15T18:45:49.873Z,100656.81
2019-02-15T18:50:56.061Z,100646.14
2019-02-15T18:56:09.517Z,100655.91
2019-02-15T19:01:27.167Z,100639.97
2019-02-15T19:06:45.161Z,100650.91
2019-02-15T19:11:52.055Z,100647.46
2019-02-15T19:17:00.760Z,100649.78
2019-02-15T19:22:29.121Z,100649.52
2019-02-15T19:27:38.589Z,100649.48
2019-02-15T19:32:49.343Z,100632.34
2019-02-15T19:38:04.832Z,100635.09
2019-02-15T19:43:11.936Z,100631.81
2019-02-15T19:48:19.975Z,100634.63
2019-02-15T19:53:28.314Z,100643.38
2019-02-15T20:05:11.939Z,100635.56
2019-02-15T20:10:28.461Z,100630.60
2019-02-15T20:15:50.284Z,100630.87
2019-02-15T20:20:59.814Z,100625.99
2019-02-15T20:26:12.181Z,100626.49
2019-02-15T20:31:29.470Z,100615.16
2019-02-15T20:36:38.478Z,100620.66
2019-02-15T20:41:50.690Z,100622.08
2019-02-15T20:46:56.517Z,100620.19
2019-02-15T20:52:06.316Z,100619.39
2019-02-15T20:57:18.518Z,100615.95
2019-02-15T21:02:32.189Z,100619.67
2019-02-15T21:07:40.142Z,100605.11
2019-02-15T21:12:48.935Z,100596.70
2019-02-15T21:17:56.352Z,100594.83
2019-02-15T21:23:11.138Z,100601.84
2019-02-15T21:28:19.754Z,100592.80
2019-02-15T21:33:28.389Z,100581.89
2019-02-15T21:38:37.663Z,100580.64
2019-02-15T21:43:45.856Z,100579.23
2019-02-15T21:48:51.784Z,100565.13
2019-02-15T21:54:08.772Z,100564.42
2019-02-15T21:59:15.665Z,100569.04
2019-02-15T22:04:23.959Z,100561.06
2019-02-15T22:09:32.889Z,100567.30
2019-02-15T22:14:40.136Z,100555.16
2019-02-15T22:19:45.921Z,100550.62
2019-02-15T22:24:52.627Z,100550.08
2019-02-15T22:30:00.467Z,100543.25
2019-02-15T22:35:10.707Z,100538.44
2019-02-15T22:40:28.430Z,100538.24
2019-02-15T22:45:34.304Z,100535.80
2019-02-15T22:50:44.210Z,100535.55
2019-02-15T22:55:52.991Z,100537.11
2019-02-15T23:01:09.770Z,100528.77
2019-02-15T23:06:20.266Z,100527.23
2019-02-15T23:11:27.876Z,100522.52
2019-02-15T23:16:38.909Z,100518.77
2019-02-15T23:21:44.833Z,100518.77
2019-02-15T23:26:55.483Z,100515.42
2019-02-15T23:32:01.173Z,100522.73
2019-02-15T23:37:09.457Z,100515.47
2019-02-15T23:42:25.129Z,100518.74
